createdAt,value
2023-05-21T00:01:59.326Z,5.13
2023-05-21T00:04:28.426Z,7.93
2023-05-21T00:06:57.408Z,6.75
2023-05-21T00:09:26.341Z,5.15
2023-05-21T00:11:55.290Z,6.58
2023-05-21T00:14:24.186Z,7.35
2023-05-21T00:16:53.138Z,7.67
2023-05-21T00:19:22.300Z,6.55
2023-05-21T00:21:51.271Z,5.70
2023-05-21T00:24:20.263Z,5.55
2023-05-21T00:26:49.276Z,5.83
2023-05-21T00:29:18.149Z,6.30
2023-05-21T00:31:50.168Z,7.87
2023-05-21T00:34:21.258Z,6.17
2023-05-21T00:36:50.344Z,6.50
2023-05-21T00:39:19.543Z,8.48
2023-05-21T00:41:48.641Z,7.93
2023-05-21T00:44:17.522Z,6.40
2023-05-21T00:46:46.515Z,5.53
2023-05-21T00:49:15.414Z,7.62
2023-05-21T00:51:44.298Z,7.85
2023-05-21T00:54:13.218Z,5.42
2023-05-21T00:56:42.609Z,5.87
2023-05-21T00:59:11.601Z,7.85
2023-05-21T01:01:40.833Z,7.65
2023-05-21T01:04:09.989Z,8.13
2023-05-21T01:06:38.993Z,6.43
2023-05-21T01:09:08.277Z,8.45
2023-05-21T01:11:37.375Z,7.92
2023-05-21T01:14:12.203Z,5.60
2023-05-21T01:16:44.868Z,5.30
2023-05-21T01:19:13.973Z,7.47
2023-05-21T01:21:43.171Z,7.90
2023-05-21T01:24:12.485Z,6.97
2023-05-21T01:26:41.414Z,9.07
2023-05-21T01:29:10.367Z,6.70
2023-05-21T01:31:39.451Z,7.33
2023-05-21T01:34:08.397Z,10.33
2023-05-21T01:36:37.334Z,8.65
2023-05-21T01:39:06.611Z,9.40
2023-05-21T01:41:35.857Z,7.05
2023-05-21T01:44:04.833Z,9.87
2023-05-21T01:46:34.164Z,9.03
2023-05-21T01:49:03.438Z,10.72
2023-05-21T01:51:32.425Z,7.75
2023-05-21T01:54:01.632Z,10.35
2023-05-21T01:56:31.036Z,9.67
2023-05-21T01:59:00.031Z,8.40
2023-05-21T02:01:29.180Z,10.38
2023-05-21T02:03:58.415Z,8.03
2023-05-21T02:06:30.144Z,8.55
2023-05-21T02:08:59.388Z,9.25
2023-05-21T02:11:28.578Z,11.28
2023-05-21T02:13:58.089Z,8.08
2023-05-21T02:16:27.095Z,9.63
2023-05-21T02:18:56.197Z,11.63
2023-05-21T02:21:25.268Z,9.00
2023-05-21T02:23:54.160Z,10.73
2023-05-21T02:26:23.263Z,9.60
2023-05-21T02:28:52.457Z,8.67
2023-05-21T02:31:21.657Z,9.97
2023-05-21T02:33:50.770Z,12.45
2023-05-21T02:36:19.839Z,12.70
2023-05-21T02:38:48.786Z,9.20
2023-05-21T02:41:18.046Z,13.68
2023-05-21T02:43:47.027Z,10.60
2023-05-21T02:46:16.730Z,11.08
2023-05-21T02:48:46.082Z,13.30
2023-05-21T02:51:16.400Z,11.73
2023-05-21T02:53:45.778Z,12.15
2023-05-21T02:56:14.863Z,10.10
2023-05-21T02:58:43.850Z,12.40
2023-05-21T03:01:13.080Z,11.38
2023-05-21T03:03:42.400Z,12.67
2023-05-21T03:06:11.288Z,10.50
2023-05-21T03:08:40.239Z,11.90
2023-05-21T03:11:09.233Z,12.55
2023-05-21T03:13:38.367Z,13.70
2023-05-21T03:16:07.501Z,11.70
2023-05-21T03:18:36.932Z,12.57
2023-05-21T03:21:06.017Z,11.88
2023-05-21T03:23:35.009Z,13.40
2023-05-21T03:26:04.011Z,14.15
2023-05-21T03:28:34.439Z,11.65
2023-05-21T03:31:03.336Z,11.53
2023-05-21T03:33:33.860Z,13.15
2023-05-21T03:36:04.490Z,12.78
2023-05-21T03:38:35.953Z,11.18
2023-05-21T03:41:05.346Z,11.53
2023-05-21T03:43:34.649Z,13.60
2023-05-21T03:46:04.097Z,13.65
2023-05-21T03:48:40.407Z,12.75
2023-05-21T03:51:10.940Z,13.48
2023-05-21T03:53:40.127Z,14.50
2023-05-21T03:56:09.241Z,14.45
2023-05-21T03:58:38.227Z,13.03
2023-05-21T04:01:10.373Z,14.45
2023-05-21T04:03:41.262Z,13.08
2023-05-21T04:06:11.768Z,13.75
2023-05-21T04:08:40.992Z,14.05
2023-05-21T04:11:10.216Z,13.53
2023-05-21T04:13:39.147Z,15.63
2023-05-21T04:16:08.487Z,13.38
2023-05-21T04:18:37.662Z,14.38
2023-05-21T04:21:07.066Z,13.70
2023-05-21T04:23:36.350Z,16.40
2023-05-21T04:26:06.788Z,12.18
2023-05-21T04:28:36.082Z,15.53
2023-05-21T04:31:05.094Z,13.75
2023-05-21T04:33:34.100Z,13.08
2023-05-21T04:36:03.387Z,12.95
2023-05-21T04:38:32.266Z,15.87
2023-05-21T04:41:01.250Z,14.50
2023-05-21T04:43:30.316Z,12.93
2023-05-21T04:46:00.773Z,12.90
2023-05-21T04:48:29.870Z,16.17
2023-05-21T04:50:58.827Z,13.07
2023-05-21T04:53:28.468Z,12.63
2023-05-21T04:55:57.563Z,14.53
2023-05-21T04:58:26.771Z,11.73
2023-05-21T05:00:56.098Z,13.08
2023-05-21T05:03:25.262Z,15.85
2023-05-21T05:05:54.361Z,13.38
2023-05-21T05:08:23.669Z,17.03
2023-05-21T05:10:52.659Z,15.43
2023-05-21T05:13:22.067Z,13.53
2023-05-21T05:15:52.587Z,13.85
2023-05-21T05:18:22.093Z,13.55
2023-05-21T05:20:51.493Z,14.00
2023-05-21T05:23:20.595Z,15.15
2023-05-21T05:25:51.576Z,15.70
2023-05-21T05:28:20.293Z,12.18
2023-05-21T05:30:49.855Z,14.35
2023-05-21T05:33:20.451Z,12.82
2023-05-21T05:35:49.652Z,12.47
2023-05-21T05:38:18.851Z,13.10
2023-05-21T05:40:48.566Z,13.62
2023-05-21T05:43:18.914Z,13.50
2023-05-21T05:45:48.313Z,13.25
2023-05-21T05:48:17.606Z,17.75
2023-05-21T05:50:46.783Z,13.80
2023-05-21T05:53:15.883Z,14.60
2023-05-21T05:55:45.085Z,14.55
2023-05-21T05:58:14.780Z,14.70
2023-05-21T06:00:45.715Z,13.85
2023-05-21T06:03:14.969Z,13.08
2023-05-21T06:05:44.119Z,14.05
2023-05-21T06:08:13.219Z,16.67
2023-05-21T06:10:42.220Z,14.25
2023-05-21T06:13:11.395Z,14.53
2023-05-21T06:15:40.606Z,13.78
2023-05-21T06:18:10.114Z,15.00
2023-05-21T06:20:39.624Z,15.70
2023-05-21T06:23:09.221Z,13.55
2023-05-21T06:25:38.730Z,12.88
2023-05-21T06:28:08.858Z,13.40
2023-05-21T06:30:39.792Z,12.55
2023-05-21T06:33:09.863Z,13.98
2023-05-21T06:35:38.999Z,12.82
2023-05-21T06:38:08.790Z,13.65
2023-05-21T06:40:38.228Z,14.15
2023-05-21T06:43:08.937Z,14.45
2023-05-21T06:45:42.278Z,13.53
2023-05-21T06:48:19.235Z,15.88
2023-05-21T06:50:48.729Z,15.55
2023-05-21T06:53:18.663Z,18.20
2023-05-21T06:55:47.546Z,17.05
2023-05-21T06:58:21.143Z,16.30
2023-05-21T07:00:50.468Z,18.73
2023-05-21T07:03:23.167Z,21.05
2023-05-21T07:05:53.053Z,17.23
2023-05-21T07:10:51.952Z,18.67
2023-05-21T07:13:21.125Z,17.02
2023-05-21T07:15:50.129Z,16.05
2023-05-21T07:18:20.877Z,21.30
2023-05-21T07:20:51.403Z,20.00
2023-05-21T07:23:21.421Z,16.70
2023-05-21T07:25:50.820Z,17.42
2023-05-21T07:28:20.533Z,19.77
2023-05-21T07:30:49.926Z,17.55
2023-05-21T07:33:20.449Z,17.67
2023-05-21T07:38:19.571Z,16.27
2023-05-21T07:40:48.895Z,16.40
2023-05-21T07:43:18.396Z,17.05
2023-05-21T07:45:47.902Z,17.98
2023-05-21T12:43:48.205Z,16.02
2023-05-21T12:46:18.054Z,17.12
2023-05-21T12:48:47.638Z,18.57
2023-05-21T12:51:16.834Z,14.58
2023-05-21T12:53:46.016Z,21.87
2023-05-21T12:56:15.221Z,18.57
2023-05-21T12:58:44.629Z,17.80
2023-05-21T13:01:13.683Z,16.12
2023-05-21T13:03:43.178Z,15.58
2023-05-21T13:06:12.627Z,17.52
2023-05-21T13:08:41.922Z,16.35
2023-05-21T13:11:11.434Z,19.82
2023-05-21T13:13:40.636Z,26.55
2023-05-21T13:16:09.767Z,23.40
2023-05-21T13:18:39.439Z,18.98
2023-05-21T13:21:08.634Z,16.07
2023-05-21T13:23:37.839Z,18.98
2023-05-21T13:26:06.935Z,13.62
2023-05-21T13:28:36.132Z,13.98
2023-05-21T13:31:05.622Z,17.70
2023-05-21T13:33:35.094Z,12.90
2023-05-21T13:36:04.538Z,13.80
2023-05-21T13:38:33.743Z,9.87
2023-05-21T13:41:02.838Z,11.35
2023-05-21T13:43:32.241Z,10.00
2023-05-21T13:46:01.332Z,9.68
2023-05-21T13:48:30.733Z,14.30
2023-05-21T13:51:00.244Z,8.80
2023-05-21T13:53:29.331Z,8.08
2023-05-21T13:55:58.426Z,12.00
2023-05-21T13:58:27.715Z,8.48
2023-05-21T14:00:56.971Z,8.30
2023-05-21T14:03:26.155Z,8.07
2023-05-21T14:05:55.308Z,8.23
2023-05-21T14:08:24.409Z,10.05
2023-05-21T14:10:53.729Z,15.18
2023-05-21T14:13:22.944Z,12.20
2023-05-21T14:15:52.210Z,9.90
2023-05-21T14:18:23.414Z,9.78
2023-05-21T14:20:52.768Z,12.35
2023-05-21T14:23:22.259Z,8.55
2023-05-21T14:25:51.575Z,9.67
2023-05-21T14:28:20.764Z,7.30
2023-05-21T14:30:49.858Z,7.97
2023-05-21T14:33:19.228Z,7.55
2023-05-21T14:35:48.367Z,9.13
2023-05-21T14:38:17.661Z,12.98
2023-05-21T14:40:46.746Z,7.87
2023-05-21T14:43:15.753Z,8.65
2023-05-21T14:45:44.995Z,8.73
2023-05-21T14:48:14.250Z,6.95
2023-05-21T14:50:43.663Z,6.37
2023-05-21T14:53:12.925Z,7.23
2023-05-21T14:55:42.782Z,8.15
2023-05-21T14:58:12.270Z,7.58
2023-05-21T15:00:41.675Z,7.40
2023-05-21T15:03:10.719Z,8.08
2023-05-21T15:05:40.170Z,7.87
2023-05-21T15:08:09.163Z,7.65
2023-05-21T15:10:38.562Z,7.47
2023-05-21T15:13:07.749Z,7.50
2023-05-21T15:15:38.033Z,7.10
2023-05-21T15:18:07.709Z,9.05
2023-05-21T15:20:37.000Z,7.30
2023-05-21T15:23:15.972Z,7.10
2023-05-21T15:25:36.949Z,8.38
2023-05-21T15:30:35.835Z,6.97
2023-05-21T15:33:05.023Z,7.93
2023-05-21T15:35:34.457Z,6.17
2023-05-21T15:38:03.755Z,7.03
2023-05-21T15:40:33.204Z,7.50
2023-05-21T15:43:02.549Z,7.33
2023-05-21T15:45:31.531Z,7.53
2023-05-21T15:48:00.889Z,8.18
2023-05-21T15:50:30.247Z,7.00
2023-05-21T15:52:59.592Z,6.80
2023-05-21T15:55:28.835Z,8.23
2023-05-21T15:57:59.582Z,7.40
2023-05-21T16:00:28.890Z,8.90
2023-05-21T16:02:58.310Z,8.23
2023-05-21T16:05:27.775Z,7.47
2023-05-21T16:07:57.090Z,7.63
2023-05-21T16:10:26.076Z,7.43
2023-05-21T16:12:55.172Z,7.20
2023-05-21T16:15:24.588Z,7.10
2023-05-21T16:17:53.757Z,7.67
2023-05-21T16:20:22.974Z,7.50
2023-05-21T16:22:52.277Z,7.15
2023-05-21T16:25:21.372Z,8.70
2023-05-21T16:27:50.465Z,7.57
2023-05-21T16:30:22.394Z,7.42
2023-05-21T16:32:51.872Z,9.03
2023-05-21T16:35:21.237Z,7.08
2023-05-21T16:37:50.326Z,7.90
2023-05-21T16:40:19.739Z,7.65
2023-05-21T16:42:49.140Z,8.30
2023-05-21T16:45:18.332Z,8.43
2023-05-21T16:47:48.189Z,8.20
2023-05-21T16:50:17.459Z,6.95
2023-05-21T16:52:46.654Z,7.93
2023-05-21T16:55:15.744Z,8.43
2023-05-21T16:57:44.834Z,6.75
2023-05-21T17:00:14.030Z,6.90
2023-05-21T17:02:43.491Z,6.47
2023-05-21T17:05:13.052Z,6.80
2023-05-21T17:07:42.558Z,6.37
2023-05-21T17:10:11.655Z,7.10
2023-05-21T17:12:40.750Z,8.88
2023-05-21T17:15:10.157Z,7.60
2023-05-21T17:17:39.381Z,9.10
2023-05-21T17:20:08.548Z,7.57
2023-05-21T17:22:37.992Z,7.15
2023-05-21T17:25:07.249Z,6.92
2023-05-21T17:27:36.530Z,7.37
2023-05-21T17:30:05.860Z,8.00
2023-05-21T17:32:35.294Z,8.08
2023-05-21T17:35:04.656Z,6.67
2023-05-21T17:37:34.064Z,7.58
2023-05-21T17:40:03.572Z,7.50
2023-05-21T17:42:32.661Z,7.85
2023-05-21T17:45:01.969Z,7.12
2023-05-21T17:47:31.287Z,7.58
2023-05-21T17:50:00.451Z,7.73
2023-05-21T17:52:29.544Z,7.42
2023-05-21T17:54:58.749Z,8.48
2023-05-21T17:57:27.950Z,6.60
2023-05-21T17:59:57.039Z,6.67
2023-05-21T18:02:28.164Z,7.67
2023-05-21T18:04:57.177Z,7.80
2023-05-21T18:07:26.062Z,7.55
2023-05-21T18:09:55.167Z,7.28
2023-05-21T18:12:24.376Z,7.22
2023-05-21T18:14:53.327Z,8.63
2023-05-21T18:17:22.352Z,6.33
2023-05-21T18:19:51.565Z,7.67
2023-05-21T18:22:21.484Z,6.53
2023-05-21T18:24:50.456Z,6.85
2023-05-21T18:27:19.658Z,7.35
2023-05-21T18:29:48.538Z,6.60
2023-05-21T18:32:17.497Z,6.83
2023-05-21T18:34:46.741Z,9.20
2023-05-21T18:37:16.039Z,9.88
2023-05-21T18:39:45.026Z,7.43
2023-05-21T18:42:14.573Z,8.60
2023-05-21T18:44:43.525Z,7.12
2023-05-21T18:47:12.414Z,7.95
2023-05-21T18:49:41.521Z,7.58
2023-05-21T18:52:10.825Z,7.37
2023-05-21T18:54:39.703Z,6.65
2023-05-21T18:57:08.709Z,7.30
2023-05-21T18:59:38.004Z,7.95
2023-05-21T19:02:07.115Z,6.50
2023-05-21T19:04:36.093Z,6.97
2023-05-21T19:07:05.085Z,7.62
2023-05-21T19:09:33.981Z,6.65
2023-05-21T19:12:02.964Z,6.33
2023-05-21T19:14:32.169Z,6.10
2023-05-21T19:17:01.266Z,6.67
2023-05-21T19:19:30.274Z,6.33
2023-05-21T19:21:59.348Z,6.30
2023-05-21T19:24:28.560Z,5.70
2023-05-21T19:26:57.969Z,5.17
2023-05-21T19:29:28.223Z,6.50
2023-05-21T19:31:57.169Z,6.33
2023-05-21T19:34:26.245Z,6.30
2023-05-21T19:36:58.342Z,5.30
2023-05-21T19:39:27.324Z,5.30
2023-05-21T19:41:56.433Z,7.85
2023-05-21T19:44:28.349Z,5.45
2023-05-21T19:46:57.693Z,7.17
2023-05-21T19:49:27.185Z,5.37
2023-05-21T19:51:56.287Z,5.33
2023-05-21T19:54:25.213Z,5.00
2023-05-21T19:56:54.061Z,5.42
2023-05-21T19:59:22.965Z,5.00
2023-05-21T20:01:51.851Z,5.35
2023-05-21T20:04:21.126Z,5.30
2023-05-21T20:06:50.352Z,5.23
2023-05-21T20:09:19.239Z,4.83
2023-05-21T20:11:48.140Z,5.05
2023-05-21T20:14:17.333Z,5.20
2023-05-21T20:16:46.686Z,5.73
2023-05-21T20:19:15.987Z,6.03
2023-05-21T20:21:45.362Z,4.50
2023-05-21T20:24:14.220Z,5.28
2023-05-21T20:26:43.218Z,4.33
2023-05-21T20:29:12.394Z,4.50
2023-05-21T20:31:41.401Z,4.87
2023-05-21T20:34:10.289Z,4.87
2023-05-21T20:36:39.285Z,3.83
2023-05-21T20:39:08.487Z,4.40
2023-05-21T20:41:37.863Z,4.70
2023-05-21T20:44:06.778Z,5.70
2023-05-21T20:46:35.688Z,4.30
2023-05-21T20:49:04.978Z,3.95
2023-05-21T20:51:34.484Z,4.58
2023-05-21T20:54:03.673Z,4.17
2023-05-21T21:01:33.817Z,4.03
2023-05-21T21:04:02.946Z,5.40
2023-05-21T21:06:32.198Z,3.92
2023-05-21T21:09:01.228Z,4.23
2023-05-21T21:11:30.301Z,3.83
2023-05-21T21:13:59.523Z,4.60
2023-05-21T21:16:28.442Z,3.92
2023-05-21T21:18:57.592Z,4.35
2023-05-21T21:21:26.690Z,4.33
2023-05-21T21:23:55.889Z,3.98
2023-05-21T21:26:24.782Z,3.85
2023-05-21T21:28:53.881Z,3.95
2023-05-21T21:31:23.080Z,3.87
2023-05-21T21:33:52.116Z,5.12
2023-05-21T21:36:21.059Z,3.70
2023-05-21T21:38:50.276Z,3.52
2023-05-21T21:41:19.457Z,3.73
2023-05-21T21:43:48.696Z,3.83
2023-05-21T21:46:17.999Z,3.93
2023-05-21T21:48:46.956Z,3.40
2023-05-21T21:51:15.846Z,4.20
2023-05-21T21:53:44.742Z,3.98
2023-05-21T21:56:14.138Z,3.90
2023-05-21T21:58:43.125Z,3.23
2023-05-21T22:01:12.094Z,5.30
2023-05-21T22:03:44.834Z,5.10
2023-05-21T22:06:13.884Z,3.92
2023-05-21T22:08:42.888Z,4.70
2023-05-21T22:11:11.989Z,4.15
2023-05-21T22:13:42.648Z,9.95
2023-05-21T22:16:11.525Z,5.47
2023-05-21T22:18:41.428Z,3.92
2023-05-21T22:21:11.193Z,5.50
2023-05-21T22:23:40.148Z,5.35
2023-05-21T22:26:09.151Z,3.67
2023-05-21T22:28:38.423Z,4.33
2023-05-21T22:31:07.562Z,5.30
2023-05-21T22:33:36.517Z,5.40
2023-05-21T22:36:05.415Z,3.58
2023-05-21T22:38:34.617Z,3.80
2023-05-21T22:41:03.699Z,5.47
2023-05-21T22:43:34.780Z,6.08
2023-05-21T22:46:04.068Z,5.80
2023-05-21T22:48:34.680Z,9.13
2023-05-21T22:51:03.561Z,5.97
2023-05-21T22:53:32.772Z,9.50
2023-05-21T22:56:02.175Z,9.17
2023-05-21T22:58:31.085Z,7.67
2023-05-21T23:01:00.471Z,7.12
2023-05-21T23:03:29.348Z,7.53
2023-05-21T23:05:58.554Z,9.15
2023-05-21T23:08:30.437Z,10.07
2023-05-21T23:10:59.610Z,9.95
2023-05-21T23:13:28.699Z,7.95
2023-05-21T23:15:57.627Z,9.45
2023-05-21T23:18:26.998Z,10.47
2023-05-21T23:20:58.989Z,9.78
2023-05-21T23:23:28.260Z,8.90
2023-05-21T23:25:57.251Z,9.28
2023-05-21T23:28:26.470Z,9.38
2023-05-21T23:30:55.862Z,9.95
2023-05-21T23:33:25.345Z,9.23
2023-05-21T23:35:54.448Z,8.60
2023-05-21T23:38:23.763Z,11.17
2023-05-21T23:40:52.745Z,10.10
2023-05-21T23:43:22.060Z,10.67
2023-05-21T23:45:51.429Z,11.75
2023-05-21T23:48:20.694Z,10.75
2023-05-21T23:50:49.949Z,12.55
2023-05-21T23:53:19.462Z,11.18
2023-05-21T23:55:48.766Z,11.15
2023-05-21T23:58:17.950Z,10.18
